createdAt,value
2022-11-24T00:00:31.055Z,5.15
2022-11-24T00:15:23.786Z,5.03
2022-11-24T00:30:28.597Z,4.90
2022-11-24T00:45:23.786Z,4.62
2022-11-24T01:00:25.892Z,4.30
2022-11-24T01:15:23.825Z,4.12
2022-11-24T01:30:25.874Z,4.20
2022-11-24T01:45:23.945Z,4.18
2022-11-24T02:00:31.742Z,4.22
2022-11-24T02:15:24.043Z,4.45
2022-11-24T02:30:23.921Z,4.45
2022-11-24T02:45:24.301Z,4.30
2022-11-24T03:00:24.230Z,4.05
2022-11-24T03:15:24.062Z,3.70
2022-11-24T03:30:24.277Z,3.65
2022-11-24T03:45:44.952Z,3.55
2022-11-24T04:00:31.681Z,3.60
2022-11-24T04:15:24.150Z,3.50
2022-11-24T04:30:24.593Z,3.12
2022-11-24T04:45:24.094Z,3.33
2022-11-24T05:00:26.640Z,3.15
2022-11-24T05:15:24.203Z,3.00
2022-11-24T05:30:24.145Z,2.83
2022-11-24T05:45:24.639Z,3.10
2022-11-24T06:00:35.784Z,2.93
2022-11-24T06:15:24.127Z,2.97
2022-11-24T06:30:24.400Z,3.20
2022-11-24T06:45:24.264Z,3.05
2022-11-24T07:00:35.305Z,3.23
2022-11-24T07:15:24.588Z,3.15
2022-11-24T07:30:29.600Z,2.90
2022-11-24T07:45:33.631Z,3.47
2022-11-24T08:00:39.046Z,3.75
2022-11-24T08:15:23.395Z,4.47
2022-11-24T08:30:24.918Z,4.90
2022-11-24T08:45:25.669Z,5.27
2022-11-24T09:00:27.215Z,5.53
2022-11-24T09:15:23.813Z,5.90
2022-11-24T09:30:26.805Z,6.18
2022-11-24T09:45:48.876Z,6.32
2022-11-24T10:00:34.296Z,6.83
2022-11-24T10:15:23.708Z,7.08
2022-11-24T10:30:28.230Z,7.50
2022-11-24T10:45:24.030Z,7.47
2022-11-24T11:00:23.837Z,7.90
2022-11-24T11:15:23.814Z,8.15
2022-11-24T11:31:20.079Z,8.20
2022-11-24T11:45:24.020Z,8.63
2022-11-24T12:00:30.927Z,8.62
2022-11-24T12:15:24.116Z,8.85
2022-11-24T12:30:28.345Z,9.00
2022-11-24T12:45:24.032Z,9.12
2022-11-24T13:00:28.098Z,9.47
2022-11-24T13:24:20.780Z,9.57
2022-11-24T13:30:33.664Z,9.83
2022-11-24T13:45:24.312Z,9.90
2022-11-24T14:00:26.787Z,9.85
2022-11-24T14:15:24.037Z,10.00
2022-11-24T14:30:24.083Z,9.70
2022-11-24T14:45:23.870Z,9.57
2022-11-24T15:00:41.723Z,9.18
2022-11-24T15:15:23.918Z,8.82
2022-11-24T15:30:25.036Z,8.50
2022-11-24T15:45:24.175Z,8.18
2022-11-24T16:00:26.834Z,8.00
2022-11-24T16:15:24.409Z,7.28
2022-11-24T16:30:24.478Z,6.95
2022-11-24T16:45:23.999Z,6.48
2022-11-24T17:00:38.125Z,6.02
2022-11-24T17:15:33.715Z,5.82
2022-11-24T17:30:24.312Z,5.60
2022-11-24T17:45:24.234Z,5.73
2022-11-24T18:00:44.224Z,5.22
2022-11-24T18:15:25.236Z,5.10
2022-11-24T18:30:29.242Z,4.85
2022-11-24T18:45:24.307Z,4.70
2022-11-24T19:00:29.756Z,4.83
2022-11-24T19:15:33.361Z,4.27
2022-11-24T19:30:33.477Z,3.50
2022-11-24T19:45:33.855Z,3.95
2022-11-24T20:00:36.278Z,3.97
2022-11-24T20:15:23.413Z,4.35
2022-11-24T20:30:23.869Z,3.60
2022-11-24T20:45:24.368Z,3.40
2022-11-24T21:00:24.315Z,3.28
2022-11-24T21:15:23.891Z,3.20
2022-11-24T21:30:23.938Z,2.90
2022-11-24T21:45:23.672Z,2.75
2022-11-24T22:00:27.845Z,2.65
2022-11-24T22:15:23.659Z,2.40
2022-11-24T22:30:24.039Z,2.17
2022-11-24T22:45:23.918Z,2.05
2022-11-24T23:00:49.774Z,4.00
2022-11-24T23:15:23.737Z,2.35
2022-11-24T23:30:24.305Z,1.78
2022-11-24T23:45:23.853Z,2.10
